sensor_id;sensor_type;location;lat;lon;timestamp;P1;durP1;ratioP1;P2;durP2;ratioP2
6376;SDS011;3221;48.858;10.128;2023-03-14T00:01:07;0.83;;;0.83;;
6376;SDS011;3221;48.858;10.128;2023-03-14T00:03:35;1.33;;;0.90;;
6376;SDS011;3221;48.858;10.128;2023-03-14T00:06:03;0.70;;;0.70;;
6376;SDS011;3221;48.858;10.128;2023-03-14T00:08:31;1.53;;;0.80;;
6376;SDS011;3221;48.858;10.128;2023-03-14T00:10:57;0.73;;;0.73;;
6376;SDS011;3221;48.858;10.128;2023-03-14T00:13:29;1.27;;;0.80;;
6376;SDS011;3221;48.858;10.128;2023-03-14T00:16:01;0.80;;;0.80;;
6376;SDS011;3221;48.858;10.128;2023-03-14T00:18:32;0.70;;;0.70;;
6376;SDS011;3221;48.858;10.128;2023-03-14T00:21:00;0.93;;;0.70;;
6376;SDS011;3221;48.858;10.128;2023-03-14T00:23:28;0.50;;;0.50;;
6376;SDS011;3221;48.858;10.128;2023-03-14T00:26:03;0.60;;;0.60;;
6376;SDS011;3221;48.858;10.128;2023-03-14T00:28:32;0.60;;;0.60;;
6376;SDS011;3221;48.858;10.128;2023-03-14T00:30:59;1.13;;;0.60;;
6376;SDS011;3221;48.858;10.128;2023-03-14T00:33:29;0.60;;;0.60;;
6376;SDS011;3221;48.858;10.128;2023-03-14T00:35:56;0.50;;;0.50;;
6376;SDS011;3221;48.858;10.128;2023-03-14T00:38:29;0.60;;;0.50;;
6376;SDS011;3221;48.858;10.128;2023-03-14T00:40:56;0.57;;;0.50;;
6376;SDS011;3221;48.858;10.128;2023-03-14T00:43:24;0.50;;;0.50;;
6376;SDS011;3221;48.858;10.128;2023-03-14T00:45:53;0.57;;;0.57;;
6376;SDS011;3221;48.858;10.128;2023-03-14T00:48:20;0.93;;;0.50;;
6376;SDS011;3221;48.858;10.128;2023-03-14T00:50:47;1.40;;;0.80;;
6376;SDS011;3221;48.858;10.128;2023-03-14T00:53:14;0.50;;;0.50;;
6376;SDS011;3221;48.858;10.128;2023-03-14T00:55:41;0.40;;;0.40;;
6376;SDS011;3221;48.858;10.128;2023-03-14T00:58:09;0.63;;;0.63;;
6376;SDS011;3221;48.858;10.128;2023-03-14T01:00:37;0.73;;;0.57;;
6376;SDS011;3221;48.858;10.128;2023-03-14T01:03:04;1.83;;;0.40;;
6376;SDS011;3221;48.858;10.128;2023-03-14T01:05:32;0.50;;;0.50;;
6376;SDS011;3221;48.858;10.128;2023-03-14T01:07:59;1.23;;;0.57;;
6376;SDS011;3221;48.858;10.128;2023-03-14T01:10:26;0.60;;;0.60;;
6376;SDS011;3221;48.858;10.128;2023-03-14T01:12:53;0.83;;;0.60;;
6376;SDS011;3221;48.858;10.128;2023-03-14T01:15:20;0.47;;;0.47;;
6376;SDS011;3221;48.858;10.128;2023-03-14T01:17:47;1.00;;;0.70;;
6376;SDS011;3221;48.858;10.128;2023-03-14T01:20:15;1.43;;;0.60;;
6376;SDS011;3221;48.858;10.128;2023-03-14T01:22:42;0.50;;;0.50;;
6376;SDS011;3221;48.858;10.128;2023-03-14T01:25:11;0.70;;;0.70;;
6376;SDS011;3221;48.858;10.128;2023-03-14T01:27:40;1.93;;;1.20;;
6376;SDS011;3221;48.858;10.128;2023-03-14T01:30:08;1.67;;;1.00;;
6376;SDS011;3221;48.858;10.128;2023-03-14T01:32:37;1.03;;;0.90;;
6376;SDS011;3221;48.858;10.128;2023-03-14T01:35:04;2.50;;;1.13;;
6376;SDS011;3221;48.858;10.128;2023-03-14T01:37:32;1.17;;;1.00;;
6376;SDS011;3221;48.858;10.128;2023-03-14T01:39:58;1.03;;;0.93;;
6376;SDS011;3221;48.858;10.128;2023-03-14T01:42:25;0.87;;;0.80;;
6376;SDS011;3221;48.858;10.128;2023-03-14T01:44:56;0.77;;;0.77;;
6376;SDS011;3221;48.858;10.128;2023-03-14T01:47:25;0.90;;;0.90;;
6376;SDS011;3221;48.858;10.128;2023-03-14T01:52:24;0.70;;;0.70;;
6376;SDS011;3221;48.858;10.128;2023-03-14T01:55:00;0.60;;;0.60;;
6376;SDS011;3221;48.858;10.128;2023-03-14T01:57:32;0.70;;;0.53;;
6376;SDS011;3221;48.858;10.128;2023-03-14T02:00:05;0.70;;;0.70;;
6376;SDS011;3221;48.858;10.128;2023-03-14T02:02:52;0.60;;;0.60;;
6376;SDS011;3221;48.858;10.128;2023-03-14T02:05:23;0.60;;;0.60;;
6376;SDS011;3221;48.858;10.128;2023-03-14T02:07:57;0.70;;;0.70;;
6376;SDS011;3221;48.858;10.128;2023-03-14T02:10:30;0.60;;;0.60;;
6376;SDS011;3221;48.858;10.128;2023-03-14T02:13:02;0.43;;;0.43;;
6376;SDS011;3221;48.858;10.128;2023-03-14T02:15:51;0.50;;;0.50;;
6376;SDS011;3221;48.858;10.128;2023-03-14T02:18:36;0.60;;;0.60;;
6376;SDS011;3221;48.858;10.128;2023-03-14T02:21:29;1.27;;;0.50;;
6376;SDS011;3221;48.858;10.128;2023-03-14T02:24:17;0.40;;;0.40;;
6376;SDS011;3221;48.858;10.128;2023-03-14T02:27:09;0.57;;;0.57;;
6376;SDS011;3221;48.858;10.128;2023-03-14T02:29:54;0.60;;;0.60;;
6376;SDS011;3221;48.858;10.128;2023-03-14T02:32:27;0.40;;;0.40;;
6376;SDS011;3221;48.858;10.128;2023-03-14T02:34:59;1.23;;;0.50;;
6376;SDS011;3221;48.858;10.128;2023-03-14T02:37:32;0.80;;;0.53;;
6376;SDS011;3221;48.858;10.128;2023-03-14T02:40:04;1.13;;;0.60;;
6376;SDS011;3221;48.858;10.128;2023-03-14T02:42:33;0.60;;;0.60;;
6376;SDS011;3221;48.858;10.128;2023-03-14T02:47:39;0.80;;;0.70;;
6376;SDS011;3221;48.858;10.128;2023-03-14T02:50:15;1.20;;;0.70;;
6376;SDS011;3221;48.858;10.128;2023-03-14T02:52:46;0.70;;;0.70;;
6376;SDS011;3221;48.858;10.128;2023-03-14T02:55:13;0.50;;;0.50;;
6376;SDS011;3221;48.858;10.128;2023-03-14T02:57:43;0.43;;;0.43;;
6376;SDS011;3221;48.858;10.128;2023-03-14T03:00:10;0.50;;;0.50;;
6376;SDS011;3221;48.858;10.128;2023-03-14T03:02:37;0.57;;;0.57;;
6376;SDS011;3221;48.858;10.128;2023-03-14T03:05:04;1.13;;;0.60;;
6376;SDS011;3221;48.858;10.128;2023-03-14T03:07:31;0.70;;;0.50;;
6376;SDS011;3221;48.858;10.128;2023-03-14T03:09:58;4.00;;;0.70;;
6376;SDS011;3221;48.858;10.128;2023-03-14T03:12:25;0.77;;;0.60;;
6376;SDS011;3221;48.858;10.128;2023-03-14T03:14:52;0.53;;;0.53;;
6376;SDS011;3221;48.858;10.128;2023-03-14T03:17:19;0.73;;;0.67;;
6376;SDS011;3221;48.858;10.128;2023-03-14T03:19:46;1.17;;;1.07;;
6376;SDS011;3221;48.858;10.128;2023-03-14T03:22:12;0.50;;;0.50;;
6376;SDS011;3221;48.858;10.128;2023-03-14T03:24:40;0.73;;;0.73;;
6376;SDS011;3221;48.858;10.128;2023-03-14T03:27:06;1.00;;;0.70;;
6376;SDS011;3221;48.858;10.128;2023-03-14T03:29:34;1.00;;;0.90;;
6376;SDS011;3221;48.858;10.128;2023-03-14T03:32:01;1.23;;;1.07;;
6376;SDS011;3221;48.858;10.128;2023-03-14T03:34:28;2.60;;;1.37;;
6376;SDS011;3221;48.858;10.128;2023-03-14T03:36:56;1.83;;;1.20;;
6376;SDS011;3221;48.858;10.128;2023-03-14T03:39:26;2.77;;;1.50;;
6376;SDS011;3221;48.858;10.128;2023-03-14T03:41:53;2.83;;;1.47;;
6376;SDS011;3221;48.858;10.128;2023-03-14T03:44:20;4.57;;;1.20;;
6376;SDS011;3221;48.858;10.128;2023-03-14T03:46:47;1.10;;;1.00;;
6376;SDS011;3221;48.858;10.128;2023-03-14T03:49:13;1.23;;;1.00;;
6376;SDS011;3221;48.858;10.128;2023-03-14T03:51:40;0.90;;;0.90;;
6376;SDS011;3221;48.858;10.128;2023-03-14T03:54:07;1.50;;;0.80;;
6376;SDS011;3221;48.858;10.128;2023-03-14T03:56:34;1.37;;;0.70;;
6376;SDS011;3221;48.858;10.128;2023-03-14T03:59:01;0.70;;;0.70;;
6376;SDS011;3221;48.858;10.128;2023-03-14T04:01:28;0.57;;;0.57;;
6376;SDS011;3221;48.858;10.128;2023-03-14T04:03:57;0.60;;;0.60;;
6376;SDS011;3221;48.858;10.128;2023-03-14T04:06:25;1.07;;;0.60;;
6376;SDS011;3221;48.858;10.128;2023-03-14T04:08:56;0.67;;;0.67;;
6376;SDS011;3221;48.858;10.128;2023-03-14T04:11:45;0.73;;;0.73;;
6376;SDS011;3221;48.858;10.128;2023-03-14T04:14:25;0.83;;;0.80;;
6376;SDS011;3221;48.858;10.128;2023-03-14T04:17:00;0.93;;;0.93;;
6376;SDS011;3221;48.858;10.128;2023-03-14T04:19:28;1.53;;;1.00;;
6376;SDS011;3221;48.858;10.128;2023-03-14T04:21:55;2.13;;;1.03;;
6376;SDS011;3221;48.858;10.128;2023-03-14T04:24:25;1.07;;;1.07;;
6376;SDS011;3221;48.858;10.128;2023-03-14T04:26:52;1.10;;;0.70;;
6376;SDS011;3221;48.858;10.128;2023-03-14T04:29:19;3.17;;;0.90;;
6376;SDS011;3221;48.858;10.128;2023-03-14T04:31:46;1.07;;;0.93;;
6376;SDS011;3221;48.858;10.128;2023-03-14T04:34:13;2.20;;;0.87;;
6376;SDS011;3221;48.858;10.128;2023-03-14T04:36:49;1.60;;;0.93;;
6376;SDS011;3221;48.858;10.128;2023-03-14T04:39:20;1.87;;;0.80;;
6376;SDS011;3221;48.858;10.128;2023-03-14T04:41:54;2.50;;;1.03;;
6376;SDS011;3221;48.858;10.128;2023-03-14T04:44:21;0.80;;;0.80;;
6376;SDS011;3221;48.858;10.128;2023-03-14T04:46:50;1.33;;;0.93;;
6376;SDS011;3221;48.858;10.128;2023-03-14T04:49:17;0.93;;;0.87;;
6376;SDS011;3221;48.858;10.128;2023-03-14T04:51:44;0.90;;;0.87;;
6376;SDS011;3221;48.858;10.128;2023-03-14T04:54:11;1.83;;;0.80;;
6376;SDS011;3221;48.858;10.128;2023-03-14T04:56:39;2.37;;;0.90;;
6376;SDS011;3221;48.858;10.128;2023-03-14T04:59:06;1.10;;;0.90;;
6376;SDS011;3221;48.858;10.128;2023-03-14T05:01:36;0.93;;;0.90;;
6376;SDS011;3221;48.858;10.128;2023-03-14T05:04:20;1.57;;;0.80;;
6376;SDS011;3221;48.858;10.128;2023-03-14T05:07:13;3.80;;;1.27;;
6376;SDS011;3221;48.858;10.128;2023-03-14T05:09:54;2.40;;;1.10;;
6376;SDS011;3221;48.858;10.128;2023-03-14T05:12:42;2.67;;;1.53;;
6376;SDS011;3221;48.858;10.128;2023-03-14T05:15:29;1.97;;;1.40;;
6376;SDS011;3221;48.858;10.128;2023-03-14T05:18:16;1.90;;;1.70;;
6376;SDS011;3221;48.858;10.128;2023-03-14T05:21:03;2.23;;;1.50;;
6376;SDS011;3221;48.858;10.128;2023-03-14T05:23:49;4.53;;;2.30;;
6376;SDS011;3221;48.858;10.128;2023-03-14T05:26:48;7.27;;;3.70;;
6376;SDS011;3221;48.858;10.128;2023-03-14T05:29:23;7.67;;;4.23;;
6376;SDS011;3221;48.858;10.128;2023-03-14T05:32:19;7.47;;;3.90;;
6376;SDS011;3221;48.858;10.128;2023-03-14T05:35:18;6.10;;;3.20;;
6376;SDS011;3221;48.858;10.128;2023-03-14T05:38:05;6.10;;;3.23;;
6376;SDS011;3221;48.858;10.128;2023-03-14T05:40:53;6.10;;;3.20;;
6376;SDS011;3221;48.858;10.128;2023-03-14T05:43:41;6.17;;;3.07;;
6376;SDS011;3221;48.858;10.128;2023-03-14T05:46:37;6.13;;;2.70;;
6376;SDS011;3221;48.858;10.128;2023-03-14T05:49:29;3.17;;;2.30;;
6376;SDS011;3221;48.858;10.128;2023-03-14T05:51:55;3.07;;;2.03;;
6376;SDS011;3221;48.858;10.128;2023-03-14T05:54:41;3.27;;;1.93;;
6376;SDS011;3221;48.858;10.128;2023-03-14T05:57:26;3.00;;;1.77;;
6376;SDS011;3221;48.858;10.128;2023-03-14T06:00:16;4.10;;;2.40;;
6376;SDS011;3221;48.858;10.128;2023-03-14T06:03:01;4.57;;;2.43;;
6376;SDS011;3221;48.858;10.128;2023-03-14T06:05:32;6.13;;;2.63;;
6376;SDS011;3221;48.858;10.128;2023-03-14T06:08:00;4.20;;;2.53;;
6376;SDS011;3221;48.858;10.128;2023-03-14T06:10:29;5.73;;;2.50;;
6376;SDS011;3221;48.858;10.128;2023-03-14T06:12:56;4.87;;;2.47;;
6376;SDS011;3221;48.858;10.128;2023-03-14T06:15:23;2.23;;;1.20;;
6376;SDS011;3221;48.858;10.128;2023-03-14T06:17:56;2.30;;;1.60;;
6376;SDS011;3221;48.858;10.128;2023-03-14T06:20:24;2.20;;;2.00;;
6376;SDS011;3221;48.858;10.128;2023-03-14T06:22:51;4.03;;;2.53;;
6376;SDS011;3221;48.858;10.128;2023-03-14T06:25:18;3.80;;;2.40;;
6376;SDS011;3221;48.858;10.128;2023-03-14T06:27:47;3.43;;;2.63;;
6376;SDS011;3221;48.858;10.128;2023-03-14T06:30:15;5.57;;;2.40;;
6376;SDS011;3221;48.858;10.128;2023-03-14T06:32:43;3.83;;;2.67;;
6376;SDS011;3221;48.858;10.128;2023-03-14T06:35:13;3.07;;;2.20;;
6376;SDS011;3221;48.858;10.128;2023-03-14T06:37:42;4.10;;;2.27;;
6376;SDS011;3221;48.858;10.128;2023-03-14T06:40:09;5.57;;;2.80;;
6376;SDS011;3221;48.858;10.128;2023-03-14T06:42:49;3.70;;;2.87;;
6376;SDS011;3221;48.858;10.128;2023-03-14T06:45:17;5.33;;;2.97;;
6376;SDS011;3221;48.858;10.128;2023-03-14T06:47:44;3.43;;;2.63;;
6376;SDS011;3221;48.858;10.128;2023-03-14T06:50:11;3.47;;;2.10;;
6376;SDS011;3221;48.858;10.128;2023-03-14T06:52:39;3.80;;;2.20;;
6376;SDS011;3221;48.858;10.128;2023-03-14T06:55:15;3.03;;;2.10;;
6376;SDS011;3221;48.858;10.128;2023-03-14T06:57:43;1.53;;;1.27;;
6376;SDS011;3221;48.858;10.128;2023-03-14T07:00:11;3.57;;;2.00;;
6376;SDS011;3221;48.858;10.128;2023-03-14T07:02:39;3.83;;;1.90;;
6376;SDS011;3221;48.858;10.128;2023-03-14T07:05:19;4.57;;;2.20;;
6376;SDS011;3221;48.858;10.128;2023-03-14T07:07:46;5.40;;;2.30;;
6376;SDS011;3221;48.858;10.128;2023-03-14T07:10:14;4.33;;;1.77;;
6376;SDS011;3221;48.858;10.128;2023-03-14T07:12:40;2.87;;;1.90;;
6376;SDS011;3221;48.858;10.128;2023-03-14T07:15:07;2.83;;;1.77;;
6376;SDS011;3221;48.858;10.128;2023-03-14T07:17:44;4.63;;;1.80;;
6376;SDS011;3221;48.858;10.128;2023-03-14T07:20:11;4.10;;;1.73;;
6376;SDS011;3221;48.858;10.128;2023-03-14T07:22:38;4.13;;;1.40;;
6376;SDS011;3221;48.858;10.128;2023-03-14T07:25:06;3.00;;;1.40;;
6376;SDS011;3221;48.858;10.128;2023-03-14T07:27:35;4.03;;;1.13;;
6376;SDS011;3221;48.858;10.128;2023-03-14T07:30:02;3.37;;;1.33;;
6376;SDS011;3221;48.858;10.128;2023-03-14T07:32:29;4.20;;;1.40;;
6376;SDS011;3221;48.858;10.128;2023-03-14T07:34:58;2.40;;;1.30;;
6376;SDS011;3221;48.858;10.128;2023-03-14T07:37:25;2.40;;;1.20;;
6376;SDS011;3221;48.858;10.128;2023-03-14T07:39:51;3.53;;;1.10;;
6376;SDS011;3221;48.858;10.128;2023-03-14T07:42:22;3.80;;;1.70;;
6376;SDS011;3221;48.858;10.128;2023-03-14T07:44:59;2.70;;;1.50;;
6376;SDS011;3221;48.858;10.128;2023-03-14T07:47:25;4.63;;;1.77;;
6376;SDS011;3221;48.858;10.128;2023-03-14T07:49:52;4.30;;;1.93;;
6376;SDS011;3221;48.858;10.128;2023-03-14T07:52:19;5.23;;;2.20;;
6376;SDS011;3221;48.858;10.128;2023-03-14T07:54:45;3.00;;;2.17;;
6376;SDS011;3221;48.858;10.128;2023-03-14T07:57:12;1.87;;;1.13;;
6376;SDS011;3221;48.858;10.128;2023-03-14T07:59:39;2.00;;;1.10;;
6376;SDS011;3221;48.858;10.128;2023-03-14T08:02:07;1.13;;;1.00;;
6376;SDS011;3221;48.858;10.128;2023-03-14T08:04:38;3.20;;;1.00;;
6376;SDS011;3221;48.858;10.128;2023-03-14T08:07:06;3.20;;;1.20;;
6376;SDS011;3221;48.858;10.128;2023-03-14T08:09:33;1.90;;;1.13;;
6376;SDS011;3221;48.858;10.128;2023-03-14T08:12:00;1.77;;;1.30;;
6376;SDS011;3221;48.858;10.128;2023-03-14T08:14:27;1.73;;;1.20;;
6376;SDS011;3221;48.858;10.128;2023-03-14T08:16:55;1.87;;;1.27;;
6376;SDS011;3221;48.858;10.128;2023-03-14T08:19:22;2.57;;;1.20;;
6376;SDS011;3221;48.858;10.128;2023-03-14T08:21:48;2.03;;;1.40;;
6376;SDS011;3221;48.858;10.128;2023-03-14T08:24:15;3.83;;;1.50;;
6376;SDS011;3221;48.858;10.128;2023-03-14T08:26:42;2.23;;;1.30;;
6376;SDS011;3221;48.858;10.128;2023-03-14T08:29:09;3.30;;;1.30;;
6376;SDS011;3221;48.858;10.128;2023-03-14T08:31:36;1.87;;;1.40;;
6376;SDS011;3221;48.858;10.128;2023-03-14T08:34:02;4.00;;;1.70;;
6376;SDS011;3221;48.858;10.128;2023-03-14T08:36:29;2.97;;;1.90;;
6376;SDS011;3221;48.858;10.128;2023-03-14T08:38:57;1.97;;;1.77;;
6376;SDS011;3221;48.858;10.128;2023-03-14T08:41:24;3.60;;;1.80;;
6376;SDS011;3221;48.858;10.128;2023-03-14T08:43:51;1.30;;;1.10;;
6376;SDS011;3221;48.858;10.128;2023-03-14T08:46:17;3.07;;;1.00;;
6376;SDS011;3221;48.858;10.128;2023-03-14T08:48:44;1.90;;;0.90;;
6376;SDS011;3221;48.858;10.128;2023-03-14T08:51:12;1.70;;;1.00;;
6376;SDS011;3221;48.858;10.128;2023-03-14T08:53:40;1.10;;;0.83;;
6376;SDS011;3221;48.858;10.128;2023-03-14T08:56:07;2.80;;;1.23;;
6376;SDS011;3221;48.858;10.128;2023-03-14T08:58:36;0.73;;;0.73;;
6376;SDS011;3221;48.858;10.128;2023-03-14T09:01:05;2.63;;;0.90;;
6376;SDS011;3221;48.858;10.128;2023-03-14T09:03:33;1.03;;;0.80;;
6376;SDS011;3221;48.858;10.128;2023-03-14T09:06:08;3.70;;;0.90;;
6376;SDS011;3221;48.858;10.128;2023-03-14T09:08:36;2.30;;;1.00;;
6376;SDS011;3221;48.858;10.128;2023-03-14T09:11:06;1.53;;;1.10;;
6376;SDS011;3221;48.858;10.128;2023-03-14T09:13:34;1.13;;;1.00;;
6376;SDS011;3221;48.858;10.128;2023-03-14T09:16:02;1.97;;;1.10;;
6376;SDS011;3221;48.858;10.128;2023-03-14T09:18:29;2.53;;;1.20;;
6376;SDS011;3221;48.858;10.128;2023-03-14T09:20:56;1.90;;;1.20;;
6376;SDS011;3221;48.858;10.128;2023-03-14T09:23:23;1.80;;;0.93;;
6376;SDS011;3221;48.858;10.128;2023-03-14T09:25:54;1.63;;;1.00;;
6376;SDS011;3221;48.858;10.128;2023-03-14T09:28:22;1.23;;;1.03;;
6376;SDS011;3221;48.858;10.128;2023-03-14T09:30:49;1.20;;;0.97;;
6376;SDS011;3221;48.858;10.128;2023-03-14T09:33:16;1.60;;;1.00;;
6376;SDS011;3221;48.858;10.128;2023-03-14T09:35:43;1.97;;;1.53;;
6376;SDS011;3221;48.858;10.128;2023-03-14T09:38:10;2.20;;;1.40;;
6376;SDS011;3221;48.858;10.128;2023-03-14T09:40:37;4.57;;;2.33;;
6376;SDS011;3221;48.858;10.128;2023-03-14T09:43:04;3.60;;;2.40;;
6376;SDS011;3221;48.858;10.128;2023-03-14T09:45:33;9.47;;;6.17;;
6376;SDS011;3221;48.858;10.128;2023-03-14T09:48:03;6.83;;;4.70;;
6376;SDS011;3221;48.858;10.128;2023-03-14T09:51:06;4.07;;;2.83;;
6376;SDS011;3221;48.858;10.128;2023-03-14T09:53:34;1.60;;;1.40;;
6376;SDS011;3221;48.858;10.128;2023-03-14T09:56:10;3.00;;;1.80;;
6376;SDS011;3221;48.858;10.128;2023-03-14T09:58:43;2.77;;;1.60;;
6376;SDS011;3221;48.858;10.128;2023-03-14T10:01:15;2.40;;;1.40;;
6376;SDS011;3221;48.858;10.128;2023-03-14T10:03:46;1.67;;;1.23;;
6376;SDS011;3221;48.858;10.128;2023-03-14T10:06:14;1.50;;;1.03;;
6376;SDS011;3221;48.858;10.128;2023-03-14T10:08:42;1.87;;;1.07;;
6376;SDS011;3221;48.858;10.128;2023-03-14T10:11:14;4.03;;;1.43;;
6376;SDS011;3221;48.858;10.128;2023-03-14T10:16:31;2.47;;;1.07;;
6376;SDS011;3221;48.858;10.128;2023-03-14T10:19:04;2.50;;;1.50;;
6376;SDS011;3221;48.858;10.128;2023-03-14T10:21:37;3.30;;;1.10;;
6376;SDS011;3221;48.858;10.128;2023-03-14T10:26:52;4.27;;;2.40;;
6376;SDS011;3221;48.858;10.128;2023-03-14T10:29:20;4.03;;;3.20;;
6376;SDS011;3221;48.858;10.128;2023-03-14T10:31:52;5.87;;;3.43;;
6376;SDS011;3221;48.858;10.128;2023-03-14T10:34:27;3.67;;;2.33;;
6376;SDS011;3221;48.858;10.128;2023-03-14T10:36:59;5.13;;;2.70;;
6376;SDS011;3221;48.858;10.128;2023-03-14T10:39:59;3.77;;;2.57;;
6376;SDS011;3221;48.858;10.128;2023-03-14T10:42:32;4.00;;;2.30;;
6376;SDS011;3221;48.858;10.128;2023-03-14T10:45:06;2.53;;;2.13;;
6376;SDS011;3221;48.858;10.128;2023-03-14T10:47:50;2.77;;;1.93;;
6376;SDS011;3221;48.858;10.128;2023-03-14T10:50:28;3.87;;;2.70;;
6376;SDS011;3221;48.858;10.128;2023-03-14T10:52:57;3.27;;;1.50;;
6376;SDS011;3221;48.858;10.128;2023-03-14T10:55:42;4.27;;;1.60;;
6376;SDS011;3221;48.858;10.128;2023-03-14T10:58:21;1.20;;;1.10;;
6376;SDS011;3221;48.858;10.128;2023-03-14T11:00:51;2.57;;;1.20;;
6376;SDS011;3221;48.858;10.128;2023-03-14T11:03:24;0.87;;;0.80;;
6376;SDS011;3221;48.858;10.128;2023-03-14T11:05:59;0.70;;;0.70;;
6376;SDS011;3221;48.858;10.128;2023-03-14T11:14:04;1.23;;;1.00;;
6376;SDS011;3221;48.858;10.128;2023-03-14T11:17:00;1.00;;;0.90;;
6376;SDS011;3221;48.858;10.128;2023-03-14T11:19:47;0.90;;;0.90;;
6376;SDS011;3221;48.858;10.128;2023-03-14T11:33:17;3.03;;;0.83;;
6376;SDS011;3221;48.858;10.128;2023-03-14T11:36:02;1.20;;;0.87;;
6376;SDS011;3221;48.858;10.128;2023-03-14T11:38:41;1.50;;;1.00;;
6376;SDS011;3221;48.858;10.128;2023-03-14T11:41:14;1.33;;;1.00;;
6376;SDS011;3221;48.858;10.128;2023-03-14T11:43:46;1.57;;;0.87;;
6376;SDS011;3221;48.858;10.128;2023-03-14T11:46:20;0.70;;;0.70;;
6376;SDS011;3221;48.858;10.128;2023-03-14T11:51:34;1.27;;;0.90;;
6376;SDS011;3221;48.858;10.128;2023-03-14T11:54:07;1.60;;;1.00;;
6376;SDS011;3221;48.858;10.128;2023-03-14T11:59:17;2.20;;;0.90;;
6376;SDS011;3221;48.858;10.128;2023-03-14T12:02:04;1.33;;;1.07;;
6376;SDS011;3221;48.858;10.128;2023-03-14T12:04:50;2.60;;;1.17;;
6376;SDS011;3221;48.858;10.128;2023-03-14T12:07:21;2.93;;;1.00;;
6376;SDS011;3221;48.858;10.128;2023-03-14T12:09:55;2.57;;;1.20;;
6376;SDS011;3221;48.858;10.128;2023-03-14T12:12:24;2.27;;;1.30;;
6376;SDS011;3221;48.858;10.128;2023-03-14T12:14:54;2.60;;;1.23;;
6376;SDS011;3221;48.858;10.128;2023-03-14T12:17:40;4.17;;;1.60;;
6376;SDS011;3221;48.858;10.128;2023-03-14T12:20:16;2.87;;;1.53;;
6376;SDS011;3221;48.858;10.128;2023-03-14T12:22:49;2.03;;;1.33;;
6376;SDS011;3221;48.858;10.128;2023-03-14T12:25:22;3.33;;;1.40;;
6376;SDS011;3221;48.858;10.128;2023-03-14T12:30:34;2.37;;;1.53;;
6376;SDS011;3221;48.858;10.128;2023-03-14T12:43:53;1.77;;;1.37;;
6376;SDS011;3221;48.858;10.128;2023-03-14T12:46:24;2.33;;;1.60;;
6376;SDS011;3221;48.858;10.128;2023-03-14T12:51:36;3.07;;;1.57;;
6376;SDS011;3221;48.858;10.128;2023-03-14T12:54:20;2.30;;;1.60;;
6376;SDS011;3221;48.858;10.128;2023-03-14T12:59:32;1.77;;;1.30;;
6376;SDS011;3221;48.858;10.128;2023-03-14T13:02:20;1.40;;;1.30;;
6376;SDS011;3221;48.858;10.128;2023-03-14T13:04:48;2.00;;;1.30;;
6376;SDS011;3221;48.858;10.128;2023-03-14T13:07:31;2.83;;;1.40;;
6376;SDS011;3221;48.858;10.128;2023-03-14T13:10:05;1.23;;;1.07;;
6376;SDS011;3221;48.858;10.128;2023-03-14T13:13:20;1.03;;;0.93;;
6376;SDS011;3221;48.858;10.128;2023-03-14T13:15:49;1.27;;;0.80;;
6376;SDS011;3221;48.858;10.128;2023-03-14T13:18:27;0.73;;;0.70;;
6376;SDS011;3221;48.858;10.128;2023-03-14T13:21:13;1.07;;;0.70;;
6376;SDS011;3221;48.858;10.128;2023-03-14T13:23:56;1.23;;;1.00;;
6376;SDS011;3221;48.858;10.128;2023-03-14T13:26:26;3.03;;;1.20;;
6376;SDS011;3221;48.858;10.128;2023-03-14T13:29:36;1.10;;;1.00;;
6376;SDS011;3221;48.858;10.128;2023-03-14T13:32:00;1.77;;;1.50;;
6376;SDS011;3221;48.858;10.128;2023-03-14T13:34:38;2.67;;;1.63;;
6376;SDS011;3221;48.858;10.128;2023-03-14T13:39:49;1.93;;;1.20;;
6376;SDS011;3221;48.858;10.128;2023-03-14T13:42:17;2.70;;;1.30;;
6376;SDS011;3221;48.858;10.128;2023-03-14T13:44:44;3.40;;;1.57;;
6376;SDS011;3221;48.858;10.128;2023-03-14T13:47:16;4.10;;;1.50;;
6376;SDS011;3221;48.858;10.128;2023-03-14T13:49:45;3.30;;;1.77;;
6376;SDS011;3221;48.858;10.128;2023-03-14T13:52:28;6.97;;;1.60;;
6376;SDS011;3221;48.858;10.128;2023-03-14T13:54:57;10.60;;;1.93;;
6376;SDS011;3221;48.858;10.128;2023-03-14T13:57:26;8.93;;;2.10;;
6376;SDS011;3221;48.858;10.128;2023-03-14T14:00:00;6.80;;;2.30;;
6376;SDS011;3221;48.858;10.128;2023-03-14T14:02:33;3.70;;;1.93;;
6376;SDS011;3221;48.858;10.128;2023-03-14T14:05:01;4.40;;;3.87;;
6376;SDS011;3221;48.858;10.128;2023-03-14T14:07:29;1.90;;;1.80;;
6376;SDS011;3221;48.858;10.128;2023-03-14T14:09:57;2.97;;;1.80;;
6376;SDS011;3221;48.858;10.128;2023-03-14T14:12:27;4.00;;;2.60;;
6376;SDS011;3221;48.858;10.128;2023-03-14T14:15:09;3.80;;;2.10;;
6376;SDS011;3221;48.858;10.128;2023-03-14T14:17:43;1.43;;;1.33;;
6376;SDS011;3221;48.858;10.128;2023-03-14T14:20:20;1.87;;;1.30;;
6376;SDS011;3221;48.858;10.128;2023-03-14T14:22:49;3.37;;;1.33;;
6376;SDS011;3221;48.858;10.128;2023-03-14T14:25:17;1.83;;;1.10;;
6376;SDS011;3221;48.858;10.128;2023-03-14T14:27:47;4.20;;;1.20;;
6376;SDS011;3221;48.858;10.128;2023-03-14T14:32:46;2.43;;;1.40;;
6376;SDS011;3221;48.858;10.128;2023-03-14T14:35:48;1.97;;;1.60;;
6376;SDS011;3221;48.858;10.128;2023-03-14T14:38:12;2.33;;;1.33;;
6376;SDS011;3221;48.858;10.128;2023-03-14T14:40:46;3.47;;;1.43;;
6376;SDS011;3221;48.858;10.128;2023-03-14T14:43:17;2.00;;;1.20;;
6376;SDS011;3221;48.858;10.128;2023-03-14T14:45:50;1.20;;;1.10;;
6376;SDS011;3221;48.858;10.128;2023-03-14T14:48:20;2.60;;;1.10;;
6376;SDS011;3221;48.858;10.128;2023-03-14T14:50:51;1.50;;;1.03;;
6376;SDS011;3221;48.858;10.128;2023-03-14T14:53:42;2.27;;;1.30;;
6376;SDS011;3221;48.858;10.128;2023-03-14T14:56:27;2.40;;;1.10;;
6376;SDS011;3221;48.858;10.128;2023-03-14T14:58:58;2.63;;;1.17;;
6376;SDS011;3221;48.858;10.128;2023-03-14T15:01:36;1.10;;;0.97;;
6376;SDS011;3221;48.858;10.128;2023-03-14T15:04:10;1.53;;;1.10;;
6376;SDS011;3221;48.858;10.128;2023-03-14T15:06:43;2.33;;;1.23;;
6376;SDS011;3221;48.858;10.128;2023-03-14T15:09:12;2.83;;;1.60;;
6376;SDS011;3221;48.858;10.128;2023-03-14T15:11:39;3.73;;;2.27;;
6376;SDS011;3221;48.858;10.128;2023-03-14T15:14:06;4.13;;;2.10;;
6376;SDS011;3221;48.858;10.128;2023-03-14T15:16:33;2.00;;;1.70;;
6376;SDS011;3221;48.858;10.128;2023-03-14T15:19:01;3.03;;;1.50;;
6376;SDS011;3221;48.858;10.128;2023-03-14T15:21:48;3.20;;;1.17;;
6376;SDS011;3221;48.858;10.128;2023-03-14T15:24:15;3.60;;;1.50;;
6376;SDS011;3221;48.858;10.128;2023-03-14T15:26:42;2.10;;;1.50;;
6376;SDS011;3221;48.858;10.128;2023-03-14T15:29:11;1.60;;;1.50;;
6376;SDS011;3221;48.858;10.128;2023-03-14T15:31:39;3.07;;;1.53;;
6376;SDS011;3221;48.858;10.128;2023-03-14T15:34:06;2.90;;;1.33;;
6376;SDS011;3221;48.858;10.128;2023-03-14T15:36:34;3.80;;;1.60;;
6376;SDS011;3221;48.858;10.128;2023-03-14T15:39:03;3.40;;;1.80;;
6376;SDS011;3221;48.858;10.128;2023-03-14T15:41:31;3.43;;;2.17;;
6376;SDS011;3221;48.858;10.128;2023-03-14T15:43:59;4.03;;;2.40;;
6376;SDS011;3221;48.858;10.128;2023-03-14T15:46:25;3.20;;;1.63;;
6376;SDS011;3221;48.858;10.128;2023-03-14T15:48:55;3.13;;;1.83;;
6376;SDS011;3221;48.858;10.128;2023-03-14T15:51:22;3.17;;;1.97;;
6376;SDS011;3221;48.858;10.128;2023-03-14T15:53:49;3.47;;;1.70;;
6376;SDS011;3221;48.858;10.128;2023-03-14T15:56:18;4.13;;;1.87;;
6376;SDS011;3221;48.858;10.128;2023-03-14T15:58:46;3.67;;;2.13;;
6376;SDS011;3221;48.858;10.128;2023-03-14T16:01:14;3.87;;;1.90;;
6376;SDS011;3221;48.858;10.128;2023-03-14T16:03:44;2.50;;;1.70;;
6376;SDS011;3221;48.858;10.128;2023-03-14T16:06:12;2.33;;;1.60;;
6376;SDS011;3221;48.858;10.128;2023-03-14T16:08:39;2.30;;;1.43;;
6376;SDS011;3221;48.858;10.128;2023-03-14T16:11:06;2.93;;;1.70;;
6376;SDS011;3221;48.858;10.128;2023-03-14T16:13:33;5.47;;;1.60;;
6376;SDS011;3221;48.858;10.128;2023-03-14T16:16:00;3.23;;;1.70;;
6376;SDS011;3221;48.858;10.128;2023-03-14T16:18:30;4.57;;;2.20;;
6376;SDS011;3221;48.858;10.128;2023-03-14T16:21:00;5.23;;;1.93;;
6376;SDS011;3221;48.858;10.128;2023-03-14T16:23:28;6.40;;;2.13;;
6376;SDS011;3221;48.858;10.128;2023-03-14T16:25:55;2.40;;;1.70;;